createdAt,value
2018-07-11T00:01:43.658Z,5.77
2018-07-11T00:04:12.232Z,8.50
2018-07-11T00:06:40.638Z,8.50
2018-07-11T00:09:09.137Z,9.97
2018-07-11T00:11:37.577Z,6.13
2018-07-11T00:14:06.160Z,7.17
2018-07-11T00:16:34.856Z,8.50
2018-07-11T00:19:03.256Z,9.20
2018-07-11T00:21:31.750Z,6.47
2018-07-11T00:24:00.288Z,7.40
2018-07-11T00:26:28.792Z,8.63
2018-07-11T00:28:57.253Z,8.40
2018-07-11T00:31:25.679Z,9.00
2018-07-11T00:33:54.109Z,7.87
2018-07-11T00:36:23.125Z,8.27
2018-07-11T00:38:51.797Z,8.20
2018-07-11T00:41:20.325Z,13.60
2018-07-11T00:43:49.660Z,9.23
2018-07-11T00:46:18.708Z,7.23
2018-07-11T00:48:47.616Z,8.40
2018-07-11T00:51:16.492Z,7.00
2018-07-11T00:53:45.267Z,7.50
2018-07-11T00:56:13.729Z,7.00
2018-07-11T00:58:49.241Z,10.53
2018-07-11T01:01:17.764Z,10.73
2018-07-11T01:03:51.736Z,9.23
2018-07-11T01:06:20.496Z,10.73
2018-07-11T01:08:53.154Z,14.43
2018-07-11T01:11:22.480Z,7.50
2018-07-11T01:13:51.301Z,9.47
2018-07-11T01:16:22.014Z,8.10
2018-07-11T01:18:57.837Z,6.63
2018-07-11T01:21:26.248Z,8.00
2018-07-11T01:23:54.913Z,4.83
2018-07-11T01:26:26.473Z,12.07
2018-07-11T01:28:55.634Z,9.30
2018-07-11T01:31:24.631Z,11.80
2018-07-11T01:33:53.347Z,9.03
2018-07-11T01:36:22.156Z,7.70
2018-07-11T01:38:51.150Z,16.13
2018-07-11T01:41:19.228Z,5.23
2018-07-11T01:43:47.647Z,10.33
2018-07-11T01:46:16.675Z,7.97
2018-07-11T01:48:45.580Z,10.30
2018-07-11T01:51:14.361Z,13.07
2018-07-11T01:53:42.792Z,10.30
2018-07-11T01:56:11.639Z,11.27
2018-07-11T01:58:42.534Z,12.60
2018-07-11T02:01:11.098Z,9.97
2018-07-11T02:03:40.783Z,9.70
2018-07-11T02:06:10.710Z,10.80
2018-07-11T02:08:39.323Z,10.77
2018-07-11T02:11:07.842Z,10.10
2018-07-11T02:13:36.786Z,13.07
2018-07-11T02:16:05.299Z,9.57
2018-07-11T02:18:35.855Z,11.73
2018-07-11T02:21:05.349Z,8.53
2018-07-11T02:23:34.929Z,11.20
2018-07-11T02:26:03.587Z,7.23
2018-07-11T02:28:33.113Z,8.87
2018-07-11T02:31:03.125Z,8.30
2018-07-11T02:33:31.377Z,5.87
2018-07-11T02:36:01.800Z,12.90
2018-07-11T02:38:30.751Z,12.63
2018-07-11T02:40:59.795Z,11.37
2018-07-11T02:43:28.233Z,11.10
2018-07-11T02:45:56.636Z,10.13
2018-07-11T02:48:25.140Z,11.80
2018-07-11T02:50:54.267Z,10.17
2018-07-11T02:53:24.107Z,8.17
2018-07-11T02:55:53.521Z,11.53
2018-07-11T02:58:21.928Z,9.93
2018-07-11T03:00:50.945Z,8.53
2018-07-11T03:03:19.408Z,8.97
2018-07-11T03:05:47.832Z,13.07
2018-07-11T03:08:16.987Z,13.53
2018-07-11T03:10:45.572Z,12.07
2018-07-11T03:13:14.149Z,10.37
2018-07-11T03:15:42.631Z,11.27
2018-07-11T03:18:11.039Z,12.63
2018-07-11T03:20:39.457Z,9.23
2018-07-11T03:23:07.882Z,11.90
2018-07-11T03:25:36.276Z,10.17
2018-07-11T03:28:04.733Z,7.13
2018-07-11T03:30:33.172Z,8.07
2018-07-11T03:33:01.909Z,11.33
2018-07-11T03:35:30.299Z,9.87
2018-07-11T03:37:58.482Z,13.03
2018-07-11T03:40:26.918Z,13.90
2018-07-11T03:42:55.346Z,13.57
2018-07-11T03:45:23.737Z,9.83
2018-07-11T03:47:52.161Z,14.70
2018-07-11T03:50:20.672Z,14.47
2018-07-11T03:52:49.097Z,16.10
2018-07-11T03:55:17.180Z,11.40
2018-07-11T03:57:45.550Z,10.70
2018-07-11T04:00:14.436Z,13.10
2018-07-11T04:02:42.850Z,9.70
2018-07-11T04:05:11.369Z,11.20
2018-07-11T04:07:39.750Z,9.53
2018-07-11T04:10:08.831Z,10.43
2018-07-11T04:12:40.395Z,13.13
2018-07-11T04:15:09.052Z,10.30
2018-07-11T04:17:37.492Z,12.50
2018-07-11T04:20:05.959Z,10.80
2018-07-11T04:22:34.535Z,11.57
2018-07-11T04:25:03.369Z,16.87
2018-07-11T04:27:31.826Z,12.80
2018-07-11T04:30:00.286Z,13.47
2018-07-11T04:32:28.742Z,15.72
2018-07-11T04:34:57.210Z,11.07
2018-07-11T04:37:25.719Z,10.20
2018-07-11T04:39:54.207Z,12.73
2018-07-11T04:42:22.699Z,11.53
2018-07-11T04:44:51.174Z,14.23
2018-07-11T04:47:19.668Z,10.93
2018-07-11T04:49:48.169Z,11.67
2018-07-11T04:52:16.680Z,10.73
2018-07-11T04:54:45.149Z,14.27
2018-07-11T04:57:13.535Z,12.27
2018-07-11T04:59:41.935Z,11.57
2018-07-11T05:02:10.417Z,10.23
2018-07-11T05:04:38.964Z,12.20
2018-07-11T05:07:07.333Z,13.40
2018-07-11T05:09:35.712Z,15.97
2018-07-11T05:12:04.180Z,11.90
2018-07-11T05:14:32.620Z,14.97
2018-07-11T05:17:01.332Z,10.93
2018-07-11T05:19:29.816Z,15.70
2018-07-11T05:21:58.273Z,13.87
2018-07-11T05:24:27.648Z,10.93
2018-07-11T05:26:56.456Z,19.60
2018-07-11T05:29:25.037Z,10.90
2018-07-11T05:31:53.446Z,7.93
2018-07-11T05:34:21.896Z,12.13
2018-07-11T05:36:50.585Z,12.33
2018-07-11T05:39:19.025Z,11.50
2018-07-11T05:41:47.546Z,8.93
2018-07-11T05:44:15.991Z,9.33
2018-07-11T05:46:44.489Z,8.67
2018-07-11T05:49:12.926Z,12.80
2018-07-11T05:51:41.326Z,9.23
2018-07-11T05:54:09.722Z,10.03
2018-07-11T05:56:38.271Z,10.57
2018-07-11T05:59:06.745Z,10.87
2018-07-11T06:01:35.517Z,15.17
2018-07-11T06:04:05.616Z,14.33
2018-07-11T06:06:34.119Z,14.00
2018-07-11T06:09:02.544Z,9.03
2018-07-11T06:11:30.681Z,12.30
2018-07-11T06:13:59.342Z,17.23
2018-07-11T06:16:27.802Z,9.00
2018-07-11T06:18:56.145Z,14.70
2018-07-11T06:21:25.626Z,13.37
2018-07-11T06:23:54.623Z,12.87
2018-07-11T06:26:23.125Z,13.10
2018-07-11T06:28:51.817Z,11.13
2018-07-11T06:31:20.978Z,10.40
2018-07-11T06:33:49.393Z,10.60
2018-07-11T06:36:17.720Z,13.83
2018-07-11T06:38:46.090Z,11.40
2018-07-11T06:41:14.676Z,17.07
2018-07-11T06:43:43.397Z,12.00
2018-07-11T06:46:11.824Z,17.77
2018-07-11T06:48:40.311Z,12.60
2018-07-11T06:51:08.681Z,9.80
2018-07-11T06:53:37.057Z,10.63
2018-07-11T06:56:05.581Z,10.60
2018-07-11T06:58:35.925Z,10.20
2018-07-11T07:01:04.052Z,15.47
2018-07-11T07:03:32.480Z,9.23
2018-07-11T07:06:00.907Z,11.90
2018-07-11T07:08:29.341Z,13.97
2018-07-11T07:10:58.107Z,11.07
2018-07-11T07:13:26.978Z,12.60
2018-07-11T07:15:55.617Z,13.67
2018-07-11T07:18:24.103Z,9.43
2018-07-11T07:20:52.998Z,10.13
2018-07-11T07:23:21.790Z,14.20
2018-07-11T07:25:50.270Z,8.90
2018-07-11T07:28:19.156Z,8.27
2018-07-11T07:30:47.687Z,8.23
2018-07-11T07:33:16.115Z,7.03
2018-07-11T07:35:44.957Z,7.13
2018-07-11T07:38:13.733Z,8.83
2018-07-11T07:40:42.499Z,8.57
2018-07-11T07:43:11.105Z,6.10
2018-07-11T07:45:40.873Z,7.40
2018-07-11T07:48:10.927Z,7.10
2018-07-11T07:50:39.641Z,5.87
2018-07-11T07:53:08.204Z,10.03
2018-07-11T07:55:36.961Z,8.93
2018-07-11T07:58:05.752Z,4.53
2018-07-11T08:00:34.384Z,5.70
2018-07-11T08:03:03.197Z,8.37
2018-07-11T08:05:31.669Z,5.47
2018-07-11T08:08:00.049Z,6.97
2018-07-11T08:10:28.430Z,4.70
2018-07-11T08:12:56.762Z,4.23
2018-07-11T08:15:25.120Z,7.07
2018-07-11T08:17:53.195Z,4.40
2018-07-11T08:20:21.583Z,2.80
2018-07-11T08:23:31.093Z,3.07
2018-07-11T08:26:10.832Z,4.20
2018-07-11T08:31:56.291Z,7.00
2018-07-11T08:34:35.814Z,5.53
2018-07-11T08:38:38.508Z,5.53
2018-07-11T08:43:24.995Z,4.83
2018-07-11T08:46:04.729Z,5.60
2018-07-11T08:49:19.611Z,3.07
2018-07-11T08:52:00.601Z,6.93
2018-07-11T08:57:17.797Z,4.67
2018-07-11T08:59:57.329Z,5.27
2018-07-11T09:02:45.965Z,8.27
2018-07-11T09:05:25.305Z,6.67
2018-07-11T09:08:10.745Z,4.40
2018-07-11T09:12:57.369Z,5.03
2018-07-11T09:15:37.186Z,4.53
2018-07-11T09:18:16.753Z,6.03
2018-07-11T09:23:14.569Z,5.33
2018-07-11T09:25:45.086Z,7.63
2018-07-11T09:28:13.471Z,7.13
2018-07-11T09:30:42.247Z,8.13
2018-07-11T09:33:12.867Z,6.20
2018-07-11T09:35:42.052Z,8.27
2018-07-11T09:38:12.039Z,5.97
2018-07-11T09:40:42.074Z,5.83
2018-07-11T09:43:13.266Z,6.67
2018-07-11T09:45:41.900Z,5.57
2018-07-11T09:48:10.530Z,6.20
2018-07-11T09:50:38.908Z,5.50
2018-07-11T09:53:07.479Z,5.77
2018-07-11T09:55:35.971Z,7.17
2018-07-11T09:58:05.051Z,8.87
2018-07-11T10:00:39.702Z,7.17
2018-07-11T10:03:08.364Z,5.57
2018-07-11T10:05:37.096Z,3.67
2018-07-11T10:08:07.911Z,8.17
2018-07-11T10:10:36.403Z,4.40
2018-07-11T10:13:05.457Z,5.27
2018-07-11T10:15:34.031Z,6.57
2018-07-11T10:18:03.375Z,5.10
2018-07-11T10:20:32.629Z,6.03
2018-07-11T10:23:01.289Z,4.53
2018-07-11T10:25:29.751Z,6.07
2018-07-11T10:28:09.698Z,5.10
2018-07-11T10:30:38.230Z,8.53
2018-07-11T10:33:06.754Z,7.43
2018-07-11T10:35:35.191Z,24.73
2018-07-11T10:38:03.651Z,6.17
2018-07-11T10:40:32.070Z,9.57
2018-07-11T10:43:01.012Z,7.27
2018-07-11T10:45:29.965Z,7.33
2018-07-11T10:47:58.440Z,5.80
2018-07-11T10:50:27.141Z,6.70
2018-07-11T10:52:55.614Z,8.00
2018-07-11T10:55:24.472Z,11.13
2018-07-11T10:57:53.954Z,6.50
2018-07-11T11:00:36.661Z,8.35
2018-07-11T11:02:57.796Z,9.97
2018-07-11T11:05:26.185Z,4.47
2018-07-11T11:07:54.712Z,8.20
2018-07-11T11:10:23.513Z,7.73
2018-07-11T11:12:52.316Z,10.77
2018-07-11T11:15:21.415Z,6.27
2018-07-11T11:17:49.824Z,9.23
2018-07-11T11:20:18.266Z,7.13
2018-07-11T11:22:46.948Z,9.20
2018-07-11T11:25:15.476Z,7.83
2018-07-11T11:27:44.034Z,10.77
2018-07-11T11:30:12.472Z,8.90
2018-07-11T11:32:41.265Z,9.07
2018-07-11T11:35:09.689Z,12.53
2018-07-11T11:37:38.409Z,10.50
2018-07-11T11:40:06.917Z,10.80
2018-07-11T11:42:35.639Z,12.70
2018-07-11T11:45:03.950Z,11.70
2018-07-11T11:47:39.121Z,10.67
2018-07-11T11:50:07.764Z,9.80
2018-07-11T11:52:36.232Z,9.83
2018-07-11T11:55:05.080Z,7.53
2018-07-11T12:00:02.802Z,6.47
2018-07-11T12:02:31.281Z,10.10
2018-07-11T12:05:00.106Z,12.20
2018-07-11T12:07:28.543Z,12.40
2018-07-11T12:09:56.974Z,12.03
2018-07-11T12:12:25.362Z,10.07
2018-07-11T12:14:53.815Z,8.95
2018-07-11T12:17:22.252Z,9.57
2018-07-11T12:19:50.754Z,8.27
2018-07-11T12:22:21.328Z,7.40
2018-07-11T12:24:50.287Z,12.03
2018-07-11T12:27:19.237Z,4.93
2018-07-11T12:29:48.403Z,5.33
2018-07-11T12:32:16.802Z,9.00
2018-07-11T12:34:45.238Z,6.80
2018-07-11T12:37:14.154Z,7.13
2018-07-11T12:39:42.595Z,9.33
2018-07-11T12:42:12.892Z,5.90
2018-07-11T12:44:41.382Z,6.30
2018-07-11T12:47:15.596Z,8.20
2018-07-11T12:49:44.728Z,12.33
2018-07-11T12:52:14.064Z,8.43
2018-07-11T12:54:43.385Z,9.53
2018-07-11T12:57:12.147Z,7.83
2018-07-11T12:59:40.633Z,8.85
2018-07-11T13:02:09.046Z,5.87
2018-07-11T13:04:37.688Z,6.87
2018-07-11T13:07:06.599Z,5.90
2018-07-11T13:09:35.751Z,7.20
2018-07-11T13:12:04.156Z,6.50
2018-07-11T13:14:32.498Z,6.17
2018-07-11T13:17:00.901Z,7.23
2018-07-11T13:19:29.276Z,6.30
2018-07-11T13:21:57.663Z,6.73
2018-07-11T13:24:26.037Z,9.80
2018-07-11T13:26:54.513Z,6.07
2018-07-11T13:29:22.944Z,9.87
2018-07-11T13:31:51.414Z,13.57
2018-07-11T13:34:20.217Z,8.50
2018-07-11T13:36:48.659Z,9.20
2018-07-11T13:39:20.857Z,8.80
2018-07-11T13:41:50.030Z,9.47
2018-07-11T13:44:18.924Z,8.57
2018-07-11T13:46:47.638Z,10.13
2018-07-11T13:49:16.288Z,10.10
2018-07-11T13:51:44.729Z,10.57
2018-07-11T13:54:13.170Z,7.17
2018-07-11T13:56:41.592Z,6.63
2018-07-11T13:59:10.039Z,6.93
2018-07-11T14:01:38.714Z,9.37
2018-07-11T14:04:07.168Z,7.87
2018-07-11T14:06:36.056Z,8.60
2018-07-11T14:09:04.819Z,7.30
2018-07-11T14:11:33.224Z,6.10
2018-07-11T14:14:01.783Z,5.43
2018-07-11T14:16:30.236Z,6.93
2018-07-11T14:18:58.668Z,6.60
2018-07-11T14:21:27.075Z,6.47
2018-07-11T14:23:55.826Z,6.17
2018-07-11T14:26:24.324Z,4.77
2018-07-11T14:28:54.642Z,4.70
2018-07-11T14:31:29.965Z,7.20
2018-07-11T14:34:01.112Z,7.43
2018-07-11T14:36:29.486Z,7.53
2018-07-11T14:38:57.999Z,6.90
2018-07-11T14:41:26.573Z,8.13
2018-07-11T14:43:55.914Z,8.83
2018-07-11T14:46:25.138Z,5.73
2018-07-11T14:48:53.754Z,9.20
2018-07-11T14:51:22.313Z,7.53
2018-07-11T14:53:51.549Z,7.23
2018-07-11T14:56:20.225Z,8.23
2018-07-11T14:58:49.155Z,10.67
2018-07-11T15:01:17.828Z,7.53
2018-07-11T15:03:46.680Z,9.17
2018-07-11T15:06:15.503Z,7.93
2018-07-11T15:08:44.370Z,6.77
2018-07-11T15:11:12.708Z,7.80
2018-07-11T15:13:41.201Z,9.00
2018-07-11T15:16:09.599Z,9.00
2018-07-11T15:18:38.372Z,6.40
2018-07-11T15:21:07.291Z,7.67
2018-07-11T15:23:35.666Z,8.00
2018-07-11T15:26:04.082Z,10.43
2018-07-11T15:28:32.732Z,5.73
2018-07-11T15:31:01.514Z,11.07
2018-07-11T15:33:29.882Z,9.77
2018-07-11T15:35:58.353Z,7.20
2018-07-11T15:38:26.940Z,6.07
2018-07-11T15:40:55.365Z,7.37
2018-07-11T15:43:25.224Z,9.13
2018-07-11T15:45:54.773Z,8.83
2018-07-11T15:48:23.000Z,8.67
2018-07-11T15:50:52.880Z,9.93
2018-07-11T15:53:22.715Z,8.20
2018-07-11T15:55:52.006Z,8.47
2018-07-11T15:58:21.946Z,9.90
2018-07-11T16:00:50.361Z,12.73
2018-07-11T16:03:19.777Z,12.43
2018-07-11T16:05:48.848Z,14.67
2018-07-11T16:08:18.573Z,11.93
2018-07-11T16:10:50.417Z,8.70
2018-07-11T16:13:18.874Z,9.50
2018-07-11T16:15:47.363Z,9.40
2018-07-11T16:18:15.766Z,8.67
2018-07-11T16:20:44.200Z,10.40
2018-07-11T16:23:12.722Z,15.50
2018-07-11T16:25:42.362Z,9.00
2018-07-11T16:28:11.698Z,8.00
2018-07-11T16:30:40.141Z,11.20
2018-07-11T16:33:08.657Z,14.07
2018-07-11T16:35:37.754Z,9.63
2018-07-11T16:38:06.245Z,9.80
2018-07-11T16:40:35.025Z,9.20
2018-07-11T16:43:03.681Z,9.23
2018-07-11T16:45:32.142Z,10.00
2018-07-11T16:48:01.030Z,12.67
2018-07-11T16:50:29.560Z,8.63
2018-07-11T16:52:58.314Z,9.10
2018-07-11T16:55:27.331Z,8.10
2018-07-11T16:57:56.511Z,8.47
2018-07-11T17:00:25.621Z,12.50
2018-07-11T17:02:59.700Z,9.53
2018-07-11T17:05:31.463Z,10.27
2018-07-11T17:08:00.465Z,7.93
2018-07-11T17:10:30.048Z,8.00
2018-07-11T17:13:08.861Z,10.33
2018-07-11T17:15:37.682Z,12.63
2018-07-11T17:18:07.125Z,12.63
2018-07-11T17:20:35.560Z,10.83
2018-07-11T17:23:07.092Z,10.77
2018-07-11T17:25:41.569Z,14.90
2018-07-11T17:28:09.663Z,13.50
2018-07-11T17:30:40.155Z,12.60
2018-07-11T17:33:09.665Z,10.40
2018-07-11T17:35:51.165Z,10.37
2018-07-11T17:38:23.477Z,9.33
2018-07-11T17:40:52.251Z,15.27
2018-07-11T17:43:22.003Z,12.97
2018-07-11T17:45:51.436Z,13.93
2018-07-11T17:48:40.557Z,11.27
2018-07-11T17:51:21.089Z,13.13
2018-07-11T17:53:55.769Z,14.63
2018-07-11T17:56:33.270Z,18.27
2018-07-11T17:59:02.196Z,13.23
2018-07-11T18:01:37.459Z,12.27
2018-07-11T18:04:09.959Z,16.97
2018-07-11T18:07:01.634Z,16.10
2018-07-11T18:09:58.112Z,13.13
2018-07-11T18:12:33.093Z,12.00
2018-07-11T18:15:13.971Z,11.13
2018-07-11T18:17:55.814Z,12.60
2018-07-11T18:20:33.341Z,16.70
2018-07-11T18:23:11.258Z,14.57
2018-07-11T18:25:48.277Z,15.10
2018-07-11T18:29:26.603Z,14.37
2018-07-11T18:32:34.525Z,12.23
2018-07-11T18:35:11.786Z,17.67
2018-07-11T18:38:01.295Z,15.67
2018-07-11T18:40:49.702Z,16.83
2018-07-11T18:43:56.269Z,19.93
2018-07-11T18:46:39.971Z,15.67
2018-07-11T18:50:22.460Z,14.83
2018-07-11T18:52:54.333Z,16.03
2018-07-11T18:55:36.685Z,14.23
2018-07-11T18:58:18.026Z,18.00
2018-07-11T19:01:58.343Z,14.63
2018-07-11T19:04:43.924Z,11.80
2018-07-11T19:07:22.665Z,12.37
2018-07-11T19:09:52.383Z,12.70
2018-07-11T19:12:31.646Z,14.00
2018-07-11T19:15:11.677Z,10.27
2018-07-11T19:17:48.205Z,15.03
2018-07-11T19:20:22.731Z,13.23
2018-07-11T19:23:02.421Z,11.33
2018-07-11T19:25:40.902Z,14.37
2018-07-11T19:28:50.300Z,16.83
2018-07-11T19:31:30.470Z,14.23
2018-07-11T19:34:08.861Z,15.77
2018-07-11T19:38:13.522Z,17.33
2018-07-11T19:40:48.046Z,17.10
2018-07-11T19:45:43.536Z,14.93
2018-07-11T19:49:19.728Z,12.90
2018-07-11T19:51:59.615Z,14.23
2018-07-11T19:54:50.956Z,11.33
2018-07-11T19:57:19.426Z,15.27
2018-07-11T19:59:47.862Z,21.53
2018-07-11T20:02:16.313Z,14.07
2018-07-11T20:04:44.753Z,14.67
2018-07-11T20:07:13.803Z,16.63
2018-07-11T20:09:42.297Z,12.97
2018-07-11T20:12:11.147Z,14.23
2018-07-11T20:14:39.572Z,13.23
2018-07-11T20:17:07.986Z,16.97
2018-07-11T20:19:36.455Z,16.37
2018-07-11T20:22:04.882Z,17.73
2018-07-11T20:24:33.321Z,13.23
2018-07-11T20:27:01.750Z,17.03
2018-07-11T20:29:30.226Z,13.33
2018-07-11T20:31:58.866Z,16.87
2018-07-11T20:34:27.531Z,14.70
2018-07-11T20:36:55.928Z,14.80
2018-07-11T20:39:24.435Z,14.77
2018-07-11T20:41:53.550Z,21.53
2018-07-11T20:44:21.980Z,14.80
2018-07-11T20:46:50.500Z,17.43
2018-07-11T20:49:24.358Z,14.03
2018-07-11T20:51:53.097Z,21.30
2018-07-11T20:54:21.528Z,13.30
2018-07-11T20:56:49.946Z,18.97
2018-07-11T20:59:29.482Z,15.87
2018-07-11T21:02:09.242Z,22.53
2018-07-11T21:04:46.866Z,18.70
2018-07-11T21:07:37.547Z,14.27
2018-07-11T21:10:17.423Z,18.63
2018-07-11T21:12:54.252Z,20.50
2018-07-11T21:15:37.344Z,18.07
2018-07-11T21:19:22.469Z,18.77
2018-07-11T21:21:51.028Z,15.63
2018-07-11T21:24:19.456Z,18.43
2018-07-11T21:26:48.053Z,17.53
2018-07-11T21:29:16.734Z,17.60
2018-07-11T21:31:45.425Z,19.93
2018-07-11T21:34:13.886Z,19.63
2018-07-11T21:36:42.575Z,18.73
2018-07-11T21:39:11.370Z,16.73
2018-07-11T21:41:39.838Z,17.03
2018-07-11T21:44:08.266Z,21.20
2018-07-11T21:46:36.726Z,19.23
2018-07-11T21:49:05.150Z,18.00
2018-07-11T21:51:33.550Z,22.57
2018-07-11T21:54:01.999Z,16.37
2018-07-11T21:56:30.439Z,16.83
2018-07-11T21:58:58.821Z,20.33
2018-07-11T22:01:27.259Z,25.27
2018-07-11T22:03:55.708Z,23.43
2018-07-11T22:06:24.470Z,18.83
2018-07-11T22:08:53.274Z,18.47
2018-07-11T22:11:21.953Z,21.13
2018-07-11T22:13:50.322Z,21.73
2018-07-11T22:16:18.771Z,21.17
2018-07-11T22:18:47.240Z,19.90
2018-07-11T22:21:15.232Z,19.60
2018-07-11T22:23:42.536Z,20.83
2018-07-11T22:26:09.867Z,22.43
2018-07-11T22:28:37.245Z,19.10
2018-07-11T22:31:04.814Z,22.47
2018-07-11T22:33:32.372Z,21.33
2018-07-11T22:35:59.722Z,20.80
2018-07-11T22:38:27.045Z,22.30
2018-07-11T22:40:54.345Z,21.83
2018-07-11T22:43:21.744Z,22.57
2018-07-11T22:45:49.110Z,18.87
2018-07-11T22:48:16.456Z,24.27
2018-07-11T22:50:43.777Z,20.07
2018-07-11T22:53:11.143Z,18.37
2018-07-11T22:55:38.949Z,19.73
2018-07-11T22:58:06.267Z,22.93
2018-07-11T23:00:36.813Z,16.20
2018-07-11T23:03:04.167Z,26.80
2018-07-11T23:05:31.754Z,21.97
2018-07-11T23:07:59.084Z,17.20
2018-07-11T23:10:26.672Z,25.53
2018-07-11T23:12:54.212Z,19.43
2018-07-11T23:15:21.530Z,15.80
2018-07-11T23:17:48.853Z,19.00
2018-07-11T23:20:16.424Z,18.37
2018-07-11T23:22:43.721Z,18.60
2018-07-11T23:25:11.046Z,23.83
2018-07-11T23:27:38.390Z,18.60
2018-07-11T23:30:06.073Z,20.53
2018-07-11T23:32:33.389Z,20.80
2018-07-11T23:35:00.733Z,21.67
2018-07-11T23:37:28.348Z,25.87
2018-07-11T23:39:55.661Z,29.80
2018-07-11T23:42:22.964Z,23.47
2018-07-11T23:44:50.270Z,24.70
2018-07-11T23:47:17.591Z,22.60
2018-07-11T23:49:44.889Z,25.97
2018-07-11T23:52:12.176Z,23.03
2018-07-11T23:54:39.593Z,28.80
2018-07-11T23:57:06.937Z,25.07
2018-07-11T23:59:34.258Z,26.40
